sensor_id;sensor_type;location;lat;lon;timestamp;pressure;altitude;pressure_sealevel;temperature;humidity
66381;BME280;53177;52.648;1.214;2023-05-10T00:01:39;100428.19;;;11.40;100.00
66381;BME280;53177;52.648;1.214;2023-05-10T00:04:05;100423.13;;;11.33;100.00
66381;BME280;53177;52.648;1.214;2023-05-10T00:06:31;100433.81;;;11.30;100.00
66381;BME280;53177;52.648;1.214;2023-05-10T00:08:56;100425.66;;;11.37;100.00
66381;BME280;53177;52.648;1.214;2023-05-10T00:11:22;100422.13;;;11.37;100.00
66381;BME280;53177;52.648;1.214;2023-05-10T00:13:47;100424.72;;;11.38;100.00
66381;BME280;53177;52.648;1.214;2023-05-10T00:16:13;100429.97;;;11.40;100.00
66381;BME280;53177;52.648;1.214;2023-05-10T00:18:39;100426.47;;;11.39;100.00
66381;BME280;53177;52.648;1.214;2023-05-10T00:21:04;100428.19;;;11.40;100.00
66381;BME280;53177;52.648;1.214;2023-05-10T00:23:30;100427.47;;;11.35;100.00
66381;BME280;53177;52.648;1.214;2023-05-10T00:25:56;100426.66;;;11.33;100.00
66381;BME280;53177;52.648;1.214;2023-05-10T00:28:21;100418.03;;;11.27;100.00
66381;BME280;53177;52.648;1.214;2023-05-10T00:30:47;100426.59;;;11.35;100.00
66381;BME280;53177;52.648;1.214;2023-05-10T00:33:12;100423.22;;;11.30;100.00
66381;BME280;53177;52.648;1.214;2023-05-10T00:35:38;100420.50;;;11.33;100.00
66381;BME280;53177;52.648;1.214;2023-05-10T00:38:03;100417.81;;;11.34;100.00
66381;BME280;53177;52.648;1.214;2023-05-10T00:40:29;100418.56;;;11.38;100.00
66381;BME280;53177;52.648;1.214;2023-05-10T00:42:56;100425.44;;;11.43;100.00
66381;BME280;53177;52.648;1.214;2023-05-10T00:45:22;100422.94;;;11.39;100.00
66381;BME280;53177;52.648;1.214;2023-05-10T00:47:48;100420.38;;;11.36;100.00
66381;BME280;53177;52.648;1.214;2023-05-10T00:50:15;100424.00;;;11.33;100.00
66381;BME280;53177;52.648;1.214;2023-05-10T00:52:41;100423.34;;;11.27;100.00
66381;BME280;53177;52.648;1.214;2023-05-10T00:55:09;100424.03;;;11.32;100.00
66381;BME280;53177;52.648;1.214;2023-05-10T00:57:36;100428.44;;;11.33;100.00
66381;BME280;53177;52.648;1.214;2023-05-10T01:00:02;100431.06;;;11.33;100.00
66381;BME280;53177;52.648;1.214;2023-05-10T01:02:29;100429.31;;;11.33;100.00
66381;BME280;53177;52.648;1.214;2023-05-10T01:04:54;100430.00;;;11.38;100.00
66381;BME280;53177;52.648;1.214;2023-05-10T01:07:20;100427.31;;;11.40;100.00
66381;BME280;53177;52.648;1.214;2023-05-10T01:09:45;100425.69;;;11.36;100.00
66381;BME280;53177;52.648;1.214;2023-05-10T01:12:11;100430.16;;;11.34;100.00
66381;BME280;53177;52.648;1.214;2023-05-10T01:14:37;100438.06;;;11.35;100.00
66381;BME280;53177;52.648;1.214;2023-05-10T01:17:03;100436.28;;;11.36;100.00
66381;BME280;53177;52.648;1.214;2023-05-10T01:19:30;100431.28;;;11.27;100.00
66381;BME280;53177;52.648;1.214;2023-05-10T01:22:25;100444.63;;;11.22;100.00
66381;BME280;53177;52.648;1.214;2023-05-10T01:25:19;100438.38;;;11.24;100.00
66381;BME280;53177;52.648;1.214;2023-05-10T01:28:28;100435.78;;;11.23;100.00
66381;BME280;53177;52.648;1.214;2023-05-10T01:38:58;100447.50;;;11.14;100.00
66381;BME280;53177;52.648;1.214;2023-05-10T01:41:39;100444.88;;;11.14;100.00
66381;BME280;53177;52.648;1.214;2023-05-10T01:44:24;100445.63;;;11.18;100.00
66381;BME280;53177;52.648;1.214;2023-05-10T01:46:59;100446.44;;;11.20;100.00
66381;BME280;53177;52.648;1.214;2023-05-10T01:49:30;100448.31;;;11.16;100.00
66381;BME280;53177;52.648;1.214;2023-05-10T01:52:00;100446.44;;;11.20;100.00
66381;BME280;53177;52.648;1.214;2023-05-10T01:54:30;100444.88;;;11.14;100.00
66381;BME280;53177;52.648;1.214;2023-05-10T01:57:02;100449.16;;;11.18;100.00
66381;BME280;53177;52.648;1.214;2023-05-10T01:59:30;100448.28;;;11.18;100.00
66381;BME280;53177;52.648;1.214;2023-05-10T02:01:59;100450.16;;;11.14;100.00
66381;BME280;53177;52.648;1.214;2023-05-10T02:04:26;100456.31;;;11.15;100.00
66381;BME280;53177;52.648;1.214;2023-05-10T02:06:53;100456.19;;;11.19;100.00
66381;BME280;53177;52.648;1.214;2023-05-10T02:09:20;100465.19;;;11.12;100.00
66381;BME280;53177;52.648;1.214;2023-05-10T02:11:47;100454.69;;;11.09;100.00
66381;BME280;53177;52.648;1.214;2023-05-10T02:14:15;100456.41;;;11.12;100.00
66381;BME280;53177;52.648;1.214;2023-05-10T02:16:41;100468.56;;;11.19;100.00
66381;BME280;53177;52.648;1.214;2023-05-10T02:19:10;100464.97;;;11.20;100.00
66381;BME280;53177;52.648;1.214;2023-05-10T02:21:39;100468.47;;;11.22;100.00
66381;BME280;53177;52.648;1.214;2023-05-10T02:24:05;100465.84;;;11.20;100.00
66381;BME280;53177;52.648;1.214;2023-05-10T02:26:32;100464.91;;;11.23;100.00
66381;BME280;53177;52.648;1.214;2023-05-10T02:29:00;100468.41;;;11.23;100.00
66381;BME280;53177;52.648;1.214;2023-05-10T02:31:26;100461.50;;;11.19;100.00
66381;BME280;53177;52.648;1.214;2023-05-10T02:33:53;100470.22;;;11.21;100.00
66381;BME280;53177;52.648;1.214;2023-05-10T02:36:19;100471.00;;;11.25;100.00
66381;BME280;53177;52.648;1.214;2023-05-10T02:38:46;100477.31;;;11.21;100.00
66381;BME280;53177;52.648;1.214;2023-05-10T02:41:12;100475.44;;;11.24;100.00
66381;BME280;53177;52.648;1.214;2023-05-10T02:43:40;100478.31;;;11.17;100.00
66381;BME280;53177;52.648;1.214;2023-05-10T02:46:05;100482.78;;;11.15;100.00
66381;BME280;53177;52.648;1.214;2023-05-10T02:48:31;100478.38;;;11.15;100.00
66381;BME280;53177;52.648;1.214;2023-05-10T02:51:03;100477.59;;;11.12;100.00
66381;BME280;53177;52.648;1.214;2023-05-10T02:53:35;100475.78;;;11.12;100.00
66381;BME280;53177;52.648;1.214;2023-05-10T02:56:05;100481.00;;;11.15;100.00
66381;BME280;53177;52.648;1.214;2023-05-10T02:58:32;100484.47;;;11.17;100.00
66381;BME280;53177;52.648;1.214;2023-05-10T03:00:59;100481.91;;;11.14;100.00
66381;BME280;53177;52.648;1.214;2023-05-10T03:03:25;100477.63;;;11.10;100.00
66381;BME280;53177;52.648;1.214;2023-05-10T03:05:50;100482.03;;;11.10;100.00
66381;BME280;53177;52.648;1.214;2023-05-10T03:08:16;100477.63;;;11.10;100.00
66381;BME280;53177;52.648;1.214;2023-05-10T03:14:42;100482.16;;;11.05;100.00
66381;BME280;53177;52.648;1.214;2023-05-10T03:16:46;100481.34;;;11.03;100.00
66381;BME280;53177;52.648;1.214;2023-05-10T03:19:24;100499.91;;;11.02;100.00
66381;BME280;53177;52.648;1.214;2023-05-10T03:21:53;100492.81;;;11.04;100.00
66381;BME280;53177;52.648;1.214;2023-05-10T03:24:21;100482.13;;;11.07;100.00
66381;BME280;53177;52.648;1.214;2023-05-10T03:26:49;100493.81;;;11.00;100.00
66381;BME280;53177;52.648;1.214;2023-05-10T03:29:17;100490.31;;;10.98;100.00
66381;BME280;53177;52.648;1.214;2023-05-10T03:31:43;100493.06;;;10.95;100.00
66381;BME280;53177;52.648;1.214;2023-05-10T03:34:12;100494.69;;;10.99;100.00
66381;BME280;53177;52.648;1.214;2023-05-10T03:36:38;100496.47;;;10.98;100.00
66381;BME280;53177;52.648;1.214;2023-05-10T03:39:04;100500.88;;;10.99;100.00
66381;BME280;53177;52.648;1.214;2023-05-10T03:41:29;100498.34;;;10.95;100.00
66381;BME280;53177;52.648;1.214;2023-05-10T03:43:55;100503.53;;;10.98;100.00
66381;BME280;53177;52.648;1.214;2023-05-10T03:46:20;100505.28;;;10.99;100.00
66381;BME280;53177;52.648;1.214;2023-05-10T03:48:45;100500.91;;;10.98;100.00
66381;BME280;53177;52.648;1.214;2023-05-10T03:51:11;100510.75;;;10.93;100.00
66381;BME280;53177;52.648;1.214;2023-05-10T03:53:36;100510.84;;;10.90;100.00
66381;BME280;53177;52.648;1.214;2023-05-10T03:56:01;100512.63;;;10.89;100.00
66381;BME280;53177;52.648;1.214;2023-05-10T03:58:27;100511.97;;;10.81;100.00
66381;BME280;53177;52.648;1.214;2023-05-10T04:00:53;100516.38;;;10.81;100.00
66381;BME280;53177;52.648;1.214;2023-05-10T04:03:18;100505.00;;;10.77;100.00
66381;BME280;53177;52.648;1.214;2023-05-10T04:05:45;100510.38;;;10.74;100.00
66381;BME280;53177;52.648;1.214;2023-05-10T04:08:10;100512.25;;;10.70;100.00
66381;BME280;53177;52.648;1.214;2023-05-10T04:10:35;100514.03;;;10.68;100.00
66381;BME280;53177;52.648;1.214;2023-05-10T04:13:01;100513.16;;;10.69;100.00
66381;BME280;53177;52.648;1.214;2023-05-10T04:15:26;100516.56;;;10.73;100.00
66381;BME280;53177;52.648;1.214;2023-05-10T04:17:52;100508.72;;;10.70;100.00
66381;BME280;53177;52.648;1.214;2023-05-10T04:20:18;100517.75;;;10.61;100.00
66381;BME280;53177;52.648;1.214;2023-05-10T04:22:43;100518.72;;;10.59;100.00
66381;BME280;53177;52.648;1.214;2023-05-10T04:25:09;100519.72;;;10.55;100.00
66381;BME280;53177;52.648;1.214;2023-05-10T04:27:34;100517.97;;;10.54;100.00
66381;BME280;53177;52.648;1.214;2023-05-10T04:30:00;100525.00;;;10.55;100.00
66381;BME280;53177;52.648;1.214;2023-05-10T04:32:25;100518.88;;;10.53;100.00
66381;BME280;53177;52.648;1.214;2023-05-10T04:34:51;100520.78;;;10.48;100.00
66381;BME280;53177;52.648;1.214;2023-05-10T04:37:16;100519.19;;;10.41;100.00
66381;BME280;53177;52.648;1.214;2023-05-10T04:39:42;100520.97;;;10.40;100.00
66381;BME280;53177;52.648;1.214;2023-05-10T04:42:07;100533.50;;;10.32;100.00
66381;BME280;53177;52.648;1.214;2023-05-10T04:44:33;100530.06;;;10.29;100.00
66381;BME280;53177;52.648;1.214;2023-05-10T04:46:59;100534.53;;;10.27;100.00
66381;BME280;53177;52.648;1.214;2023-05-10T04:49:24;100532.69;;;10.29;100.00
66381;BME280;53177;52.648;1.214;2023-05-10T04:51:49;100540.69;;;10.27;100.00
66381;BME280;53177;52.648;1.214;2023-05-10T04:54:15;100541.66;;;10.23;100.00
66381;BME280;53177;52.648;1.214;2023-05-10T04:56:40;100548.63;;;10.25;100.00
66381;BME280;53177;52.648;1.214;2023-05-10T04:59:06;100541.66;;;10.23;100.00
66381;BME280;53177;52.648;1.214;2023-05-10T05:01:31;100545.19;;;10.23;100.00
66381;BME280;53177;52.648;1.214;2023-05-10T05:03:57;100541.50;;;10.29;100.00
66381;BME280;53177;52.648;1.214;2023-05-10T05:06:22;100543.94;;;10.38;100.00
66381;BME280;53177;52.648;1.214;2023-05-10T05:08:50;100547.59;;;10.33;100.00
66381;BME280;53177;52.648;1.214;2023-05-10T05:11:15;100550.22;;;10.33;100.00
66381;BME280;53177;52.648;1.214;2023-05-10T05:13:41;100547.59;;;10.31;100.00
66381;BME280;53177;52.648;1.214;2023-05-10T05:16:06;100549.28;;;10.35;100.00
66381;BME280;53177;52.648;1.214;2023-05-10T05:18:31;100557.28;;;10.32;100.00
66381;BME280;53177;52.648;1.214;2023-05-10T05:20:57;100554.81;;;10.26;100.00
66381;BME280;53177;52.648;1.214;2023-05-10T05:23:22;100566.09;;;10.31;100.00
66381;BME280;53177;52.648;1.214;2023-05-10T05:25:51;100563.59;;;10.27;100.00
66381;BME280;53177;52.648;1.214;2023-05-10T05:28:17;100565.19;;;10.34;100.00
66381;BME280;53177;52.648;1.214;2023-05-10T05:30:42;100571.34;;;10.34;100.00
66381;BME280;53177;52.648;1.214;2023-05-10T05:33:07;100576.56;;;10.37;100.00
66381;BME280;53177;52.648;1.214;2023-05-10T05:35:33;100581.78;;;10.39;100.00
66381;BME280;53177;52.648;1.214;2023-05-10T05:37:58;100577.50;;;10.35;100.00
66381;BME280;53177;52.648;1.214;2023-05-10T05:40:24;100584.69;;;10.28;100.00
66381;BME280;53177;52.648;1.214;2023-05-10T05:42:50;100583.88;;;10.24;100.00
66381;BME280;53177;52.648;1.214;2023-05-10T05:45:16;100587.41;;;10.25;100.00
66381;BME280;53177;52.648;1.214;2023-05-10T05:47:41;100590.78;;;10.32;100.00
66381;BME280;53177;52.648;1.214;2023-05-10T05:50:07;100588.44;;;10.19;100.00
66381;BME280;53177;52.648;1.214;2023-05-10T05:52:32;100594.53;;;10.23;100.00
66381;BME280;53177;52.648;1.214;2023-05-10T05:54:57;100597.97;;;10.25;100.00
66381;BME280;53177;52.648;1.214;2023-05-10T05:57:23;100610.41;;;10.20;100.00
66381;BME280;53177;52.648;1.214;2023-05-10T05:59:48;100605.09;;;10.23;100.00
66381;BME280;53177;52.648;1.214;2023-05-10T06:02:14;100602.69;;;10.11;100.00
66381;BME280;53177;52.648;1.214;2023-05-10T06:04:39;100603.50;;;10.16;100.00
66381;BME280;53177;52.648;1.214;2023-05-10T06:07:05;100605.97;;;10.22;100.00
66381;BME280;53177;52.648;1.214;2023-05-10T06:09:30;100615.75;;;10.18;100.00
66381;BME280;53177;52.648;1.214;2023-05-10T06:11:55;100620.97;;;10.21;100.00
66381;BME280;53177;52.648;1.214;2023-05-10T06:14:21;100619.19;;;10.22;100.00
66381;BME280;53177;52.648;1.214;2023-05-10T06:16:47;100619.91;;;10.30;100.00
66381;BME280;53177;52.648;1.214;2023-05-10T06:19:12;100622.38;;;10.38;100.00
66381;BME280;53177;52.648;1.214;2023-05-10T06:21:38;100621.59;;;10.31;100.00
66381;BME280;53177;52.648;1.214;2023-05-10T06:24:03;100617.38;;;10.24;100.00
66381;BME280;53177;52.648;1.214;2023-05-10T06:26:30;100627.06;;;10.25;100.00
66381;BME280;53177;52.648;1.214;2023-05-10T06:28:55;100628.72;;;10.29;100.00
66381;BME280;53177;52.648;1.214;2023-05-10T06:31:21;100630.41;;;10.32;100.00
66381;BME280;53177;52.648;1.214;2023-05-10T06:33:46;100630.56;;;10.25;100.00
66381;BME280;53177;52.648;1.214;2023-05-10T06:36:12;100634.91;;;10.28;100.00
66381;BME280;53177;52.648;1.214;2023-05-10T06:38:38;100633.00;;;10.35;100.00
66381;BME280;53177;52.648;1.214;2023-05-10T06:41:04;100642.97;;;10.23;100.00
66381;BME280;53177;52.648;1.214;2023-05-10T06:43:29;100641.13;;;10.27;100.00
66381;BME280;53177;52.648;1.214;2023-05-10T06:45:55;100651.53;;;10.33;100.00
66381;BME280;53177;52.648;1.214;2023-05-10T06:48:20;100648.88;;;10.35;100.00
66381;BME280;53177;52.648;1.214;2023-05-10T06:50:45;100651.28;;;10.44;100.00
66381;BME280;53177;52.648;1.214;2023-05-10T06:53:11;100654.91;;;10.40;100.00
66381;BME280;53177;52.648;1.214;2023-05-10T06:55:37;100659.94;;;10.50;100.00
66381;BME280;53177;52.648;1.214;2023-05-10T06:58:02;100657.19;;;10.55;100.00
66381;BME280;53177;52.648;1.214;2023-05-10T07:00:28;100652.53;;;10.66;100.00
66381;BME280;53177;52.648;1.214;2023-05-10T07:02:53;100665.47;;;10.77;100.00
66381;BME280;53177;52.648;1.214;2023-05-10T07:05:19;100660.19;;;10.77;100.00
66381;BME280;53177;52.648;1.214;2023-05-10T07:07:45;100664.53;;;10.79;100.00
66381;BME280;53177;52.648;1.214;2023-05-10T07:10:10;100668.03;;;10.81;100.00
66381;BME280;53177;52.648;1.214;2023-05-10T07:12:36;100673.06;;;10.90;100.00
66381;BME280;53177;52.648;1.214;2023-05-10T07:15:02;100674.09;;;10.85;100.00
66381;BME280;53177;52.648;1.214;2023-05-10T07:17:28;100659.78;;;10.93;100.00
66381;BME280;53177;52.648;1.214;2023-05-10T07:19:53;100673.03;;;10.93;100.00
66381;BME280;53177;52.648;1.214;2023-05-10T07:22:18;100678.94;;;11.03;100.00
66381;BME280;53177;52.648;1.214;2023-05-10T07:24:44;100676.06;;;11.12;100.00
66381;BME280;53177;52.648;1.214;2023-05-10T07:27:09;100676.81;;;11.17;100.00
66381;BME280;53177;52.648;1.214;2023-05-10T07:29:35;100685.41;;;11.25;100.00
66381;BME280;53177;52.648;1.214;2023-05-10T07:32:01;100687.44;;;11.15;100.00
66381;BME280;53177;52.648;1.214;2023-05-10T07:34:26;100690.94;;;11.16;100.00
66381;BME280;53177;52.648;1.214;2023-05-10T07:36:52;100683.75;;;11.21;100.00
66381;BME280;53177;52.648;1.214;2023-05-10T07:39:18;100689.84;;;11.24;100.00
66381;BME280;53177;52.648;1.214;2023-05-10T07:41:43;100689.81;;;11.26;100.00
66381;BME280;53177;52.648;1.214;2023-05-10T07:44:09;100686.22;;;11.29;100.00
66381;BME280;53177;52.648;1.214;2023-05-10T07:46:34;100692.41;;;11.28;100.00
66381;BME280;53177;52.648;1.214;2023-05-10T07:49:00;100685.03;;;11.40;100.00
66381;BME280;53177;52.648;1.214;2023-05-10T07:51:26;100686.47;;;11.19;100.00
66381;BME280;53177;52.648;1.214;2023-05-10T07:53:53;100690.75;;;11.23;100.00
66381;BME280;53177;52.648;1.214;2023-05-10T07:56:22;100688.78;;;11.32;100.00
66381;BME280;53177;52.648;1.214;2023-05-10T07:58:48;100688.09;;;11.23;100.00
66381;BME280;53177;52.648;1.214;2023-05-10T08:01:13;100689.13;;;11.19;100.00
66381;BME280;53177;52.648;1.214;2023-05-10T08:03:39;100692.75;;;11.15;100.00
66381;BME280;53177;52.648;1.214;2023-05-10T08:06:04;100689.81;;;11.26;100.00
66381;BME280;53177;52.648;1.214;2023-05-10T08:08:31;100692.56;;;11.23;100.00
66381;BME280;53177;52.648;1.214;2023-05-10T08:10:56;100687.09;;;11.29;100.00
66381;BME280;53177;52.648;1.214;2023-05-10T08:13:21;100692.28;;;11.34;100.00
66381;BME280;53177;52.648;1.214;2023-05-10T08:15:47;100700.81;;;11.43;100.00
66381;BME280;53177;52.648;1.214;2023-05-10T08:18:12;100694.50;;;11.49;100.00
66381;BME280;53177;52.648;1.214;2023-05-10T08:20:37;100694.38;;;11.53;100.00
66381;BME280;53177;52.648;1.214;2023-05-10T08:23:03;100699.31;;;11.67;100.00
66381;BME280;53177;52.648;1.214;2023-05-10T08:25:28;100701.84;;;11.71;100.00
66381;BME280;53177;52.648;1.214;2023-05-10T08:27:56;100703.94;;;11.59;100.00
66381;BME280;53177;52.648;1.214;2023-05-10T08:30:26;100714.34;;;11.65;100.00
66381;BME280;53177;52.648;1.214;2023-05-10T08:32:52;100710.53;;;11.77;100.00
66381;BME280;53177;52.648;1.214;2023-05-10T08:35:17;100714.19;;;11.73;100.00
66381;BME280;53177;52.648;1.214;2023-05-10T08:37:42;100720.63;;;11.95;100.00
66381;BME280;53177;52.648;1.214;2023-05-10T08:40:08;100719.91;;;11.90;100.00
66381;BME280;53177;52.648;1.214;2023-05-10T08:42:39;100723.53;;;11.86;100.00
66381;BME280;53177;52.648;1.214;2023-05-10T08:45:07;100719.28;;;11.80;100.00
66381;BME280;53177;52.648;1.214;2023-05-10T08:47:37;100718.22;;;12.16;100.00
66381;BME280;53177;52.648;1.214;2023-05-10T08:50:04;100714.09;;;12.37;100.00
66381;BME280;53177;52.648;1.214;2023-05-10T08:52:30;100719.53;;;12.60;100.00
66381;BME280;53177;52.648;1.214;2023-05-10T08:54:56;100721.75;;;12.46;100.00
66381;BME280;53177;52.648;1.214;2023-05-10T08:57:21;100725.47;;;12.68;100.00
66381;BME280;53177;52.648;1.214;2023-05-10T08:59:47;100730.53;;;12.76;100.00
66381;BME280;53177;52.648;1.214;2023-05-10T09:02:13;100722.84;;;12.96;100.00
66381;BME280;53177;52.648;1.214;2023-05-10T09:04:38;100716.34;;;13.05;99.93
66381;BME280;53177;52.648;1.214;2023-05-10T09:07:04;100723.66;;;13.26;100.00
66381;BME280;53177;52.648;1.214;2023-05-10T09:09:30;100730.56;;;13.04;100.00
66381;BME280;53177;52.648;1.214;2023-05-10T09:11:56;100727.72;;;13.10;100.00
66381;BME280;53177;52.648;1.214;2023-05-10T09:14:23;100730.69;;;12.99;98.49
66381;BME280;53177;52.648;1.214;2023-05-10T09:16:49;100735.47;;;13.16;98.20
66381;BME280;53177;52.648;1.214;2023-05-10T09:19:15;100728.84;;;13.29;98.70
66381;BME280;53177;52.648;1.214;2023-05-10T09:21:40;100723.91;;;13.45;95.13
66381;BME280;53177;52.648;1.214;2023-05-10T09:24:07;100729.53;;;13.60;95.38
66381;BME280;53177;52.648;1.214;2023-05-10T09:26:33;100721.25;;;13.70;94.52
66381;BME280;53177;52.648;1.214;2023-05-10T09:29:00;100729.28;;;13.93;95.29
66381;BME280;53177;52.648;1.214;2023-05-10T09:31:45;100727.38;;;14.20;95.55
66381;BME280;53177;52.648;1.214;2023-05-10T09:34:29;100737.13;;;14.19;91.49
66381;BME280;53177;52.648;1.214;2023-05-10T09:36:57;100740.63;;;14.21;91.79
66381;BME280;53177;52.648;1.214;2023-05-10T09:39:33;100725.47;;;14.23;92.70
66381;BME280;53177;52.648;1.214;2023-05-10T09:42:01;100739.28;;;14.09;93.14
66381;BME280;53177;52.648;1.214;2023-05-10T09:44:29;100739.91;;;14.41;93.19
66381;BME280;53177;52.648;1.214;2023-05-10T09:46:55;100737.03;;;14.22;93.00
66381;BME280;53177;52.648;1.214;2023-05-10T09:49:21;100736.81;;;14.28;93.06
66381;BME280;53177;52.648;1.214;2023-05-10T09:51:47;100737.03;;;14.69;90.05
66381;BME280;53177;52.648;1.214;2023-05-10T09:54:15;100735.19;;;14.71;90.72
66381;BME280;53177;52.648;1.214;2023-05-10T09:56:41;100739.09;;;14.62;89.63
66381;BME280;53177;52.648;1.214;2023-05-10T09:59:09;100737.22;;;14.64;89.15
66381;BME280;53177;52.648;1.214;2023-05-10T10:01:36;100740.00;;;14.61;89.28
66381;BME280;53177;52.648;1.214;2023-05-10T10:04:03;100732.19;;;14.78;90.60
66381;BME280;53177;52.648;1.214;2023-05-10T10:06:29;100730.84;;;14.90;91.70
66381;BME280;53177;52.648;1.214;2023-05-10T10:08:56;100738.66;;;15.16;91.93
66381;BME280;53177;52.648;1.214;2023-05-10T10:11:23;100730.78;;;15.77;86.16
66381;BME280;53177;52.648;1.214;2023-05-10T10:13:48;100732.84;;;15.48;83.89
66381;BME280;53177;52.648;1.214;2023-05-10T10:16:14;100731.56;;;15.79;87.20
66381;BME280;53177;52.648;1.214;2023-05-10T10:18:41;100732.84;;;15.70;81.32
66381;BME280;53177;52.648;1.214;2023-05-10T10:21:07;100736.75;;;15.62;81.81
66381;BME280;53177;52.648;1.214;2023-05-10T10:23:36;100740.31;;;15.62;82.83
66381;BME280;53177;52.648;1.214;2023-05-10T10:26:03;100735.78;;;15.42;78.03
66381;BME280;53177;52.648;1.214;2023-05-10T10:28:51;100729.69;;;15.19;80.33
66381;BME280;53177;52.648;1.214;2023-05-10T10:34:01;100744.00;;;15.78;83.53
66381;BME280;53177;52.648;1.214;2023-05-10T10:36:28;100745.69;;;16.40;81.94
66381;BME280;53177;52.648;1.214;2023-05-10T10:38:55;100739.69;;;16.53;77.09
66381;BME280;53177;52.648;1.214;2023-05-10T10:41:37;100732.78;;;16.49;78.42
66381;BME280;53177;52.648;1.214;2023-05-10T10:44:25;100736.47;;;16.47;77.52
66381;BME280;53177;52.648;1.214;2023-05-10T10:49:51;100739.81;;;16.13;76.63
66381;BME280;53177;52.648;1.214;2023-05-10T10:55:12;100720.00;;;15.78;79.39
66381;BME280;53177;52.648;1.214;2023-05-10T11:02:53;100726.16;;;16.19;77.64
66381;BME280;53177;52.648;1.214;2023-05-10T11:07:59;100729.44;;;17.36;79.82
66381;BME280;53177;52.648;1.214;2023-05-10T11:10:26;100723.50;;;17.66;75.31
66381;BME280;53177;52.648;1.214;2023-05-10T11:13:07;100726.16;;;17.13;75.32
66381;BME280;53177;52.648;1.214;2023-05-10T11:15:39;100721.09;;;17.42;75.45
66381;BME280;53177;52.648;1.214;2023-05-10T11:18:25;100733.84;;;17.01;71.47
66381;BME280;53177;52.648;1.214;2023-05-10T11:20:52;100738.31;;;16.45;72.98
66381;BME280;53177;52.648;1.214;2023-05-10T11:23:18;100738.66;;;16.76;75.83
66381;BME280;53177;52.648;1.214;2023-05-10T11:25:45;100727.22;;;16.54;74.31
66381;BME280;53177;52.648;1.214;2023-05-10T11:28:12;100740.19;;;16.24;77.51
66381;BME280;53177;52.648;1.214;2023-05-10T11:30:39;100734.59;;;16.10;75.64
66381;BME280;53177;52.648;1.214;2023-05-10T11:33:05;100736.72;;;16.41;77.79
66381;BME280;53177;52.648;1.214;2023-05-10T11:35:37;100734.56;;;16.30;74.99
66381;BME280;53177;52.648;1.214;2023-05-10T11:38:05;100738.00;;;16.71;73.36
66381;BME280;53177;52.648;1.214;2023-05-10T11:40:31;100723.53;;;16.94;68.91
66381;BME280;53177;52.648;1.214;2023-05-10T11:42:56;100735.78;;;16.81;68.84
66381;BME280;53177;52.648;1.214;2023-05-10T11:45:23;100733.84;;;16.45;72.54
66381;BME280;53177;52.648;1.214;2023-05-10T11:47:49;100738.09;;;16.49;73.28
66381;BME280;53177;52.648;1.214;2023-05-10T11:50:16;100735.59;;;16.46;77.26
66381;BME280;53177;52.648;1.214;2023-05-10T11:52:42;100730.50;;;16.61;72.41
66381;BME280;53177;52.648;1.214;2023-05-10T11:55:07;100738.78;;;17.45;74.54
66381;BME280;53177;52.648;1.214;2023-05-10T11:57:33;100733.16;;;17.51;70.41
66381;BME280;53177;52.648;1.214;2023-05-10T11:59:58;100742.44;;;16.89;70.83
66381;BME280;53177;52.648;1.214;2023-05-10T12:02:24;100736.84;;;16.77;71.78
66381;BME280;53177;52.648;1.214;2023-05-10T12:04:50;100732.47;;;16.55;71.44
66381;BME280;53177;52.648;1.214;2023-05-10T12:07:16;100733.06;;;16.99;71.71
66381;BME280;53177;52.648;1.214;2023-05-10T12:09:43;100731.19;;;17.55;67.48
66381;BME280;53177;52.648;1.214;2023-05-10T12:12:15;100734.63;;;17.39;68.72
66381;BME280;53177;52.648;1.214;2023-05-10T12:14:41;100736.44;;;17.39;69.70
66381;BME280;53177;52.648;1.214;2023-05-10T12:17:11;100736.41;;;17.58;69.96
66381;BME280;53177;52.648;1.214;2023-05-10T12:19:38;100735.81;;;18.03;65.41
66381;BME280;53177;52.648;1.214;2023-05-10T12:22:06;100729.41;;;19.02;68.13
66381;BME280;53177;52.648;1.214;2023-05-10T12:24:34;100732.41;;;19.12;66.50
66381;BME280;53177;52.648;1.214;2023-05-10T12:27:04;100729.63;;;18.51;63.60
66381;BME280;53177;52.648;1.214;2023-05-10T12:29:30;100730.94;;;18.26;64.71
66381;BME280;53177;52.648;1.214;2023-05-10T12:31:58;100722.91;;;18.75;71.43
66381;BME280;53177;52.648;1.214;2023-05-10T12:34:29;100722.66;;;19.40;66.55
66381;BME280;53177;52.648;1.214;2023-05-10T12:36:55;100723.03;;;19.94;61.66
66381;BME280;53177;52.648;1.214;2023-05-10T12:39:21;100727.81;;;19.89;57.38
66381;BME280;53177;52.648;1.214;2023-05-10T12:41:46;100720.63;;;19.89;59.70
66381;BME280;53177;52.648;1.214;2023-05-10T12:44:12;100732.03;;;20.21;55.42
66381;BME280;53177;52.648;1.214;2023-05-10T12:46:37;100728.28;;;19.52;57.35
66381;BME280;53177;52.648;1.214;2023-05-10T12:49:02;100725.94;;;19.61;62.33
66381;BME280;53177;52.648;1.214;2023-05-10T12:51:28;100725.69;;;19.80;54.02
66381;BME280;53177;52.648;1.214;2023-05-10T12:53:53;100720.88;;;19.85;52.35
66381;BME280;53177;52.648;1.214;2023-05-10T12:56:19;100720.53;;;19.91;54.08
66381;BME280;53177;52.648;1.214;2023-05-10T12:58:45;100723.22;;;19.91;58.17
66381;BME280;53177;52.648;1.214;2023-05-10T13:01:14;100725.50;;;18.92;57.16
66381;BME280;53177;52.648;1.214;2023-05-10T13:03:39;100725.97;;;19.30;62.61
66381;BME280;53177;52.648;1.214;2023-05-10T13:06:05;100719.84;;;19.28;60.14
66381;BME280;53177;52.648;1.214;2023-05-10T13:08:31;100726.97;;;19.59;54.34
66381;BME280;53177;52.648;1.214;2023-05-10T13:10:59;100727.78;;;19.75;54.74